createdAt,value
2022-11-28T00:03:10.118Z,42.22
2022-11-28T00:08:12.636Z,37.88
2022-11-28T00:13:14.361Z,40.53
2022-11-28T00:18:16.034Z,41.13
2022-11-28T00:23:17.796Z,39.65
2022-11-28T00:28:19.558Z,37.72
2022-11-28T00:33:21.626Z,38.30
2022-11-28T00:38:23.377Z,41.47
2022-11-28T00:43:25.134Z,37.10
2022-11-28T00:48:27.545Z,40.85
2022-11-28T00:53:29.206Z,45.35
2022-11-28T00:58:31.960Z,37.80
2022-11-28T01:03:33.597Z,37.92
2022-11-28T01:08:36.614Z,39.38
2022-11-28T01:13:39.455Z,41.88
2022-11-28T01:18:41.124Z,43.83
2022-11-28T01:23:42.910Z,40.72
2022-11-28T01:28:45.495Z,46.40
2022-11-28T01:33:47.790Z,44.60
2022-11-28T01:38:49.924Z,45.58
2022-11-28T01:43:58.794Z,45.15
2022-11-28T01:49:22.772Z,46.55
2022-11-28T01:54:26.208Z,45.38
2022-11-28T01:59:33.927Z,46.35
2022-11-28T02:04:35.761Z,46.25
2022-11-28T02:09:37.447Z,46.40
2022-11-28T02:15:16.981Z,42.57
2022-11-28T02:20:40.285Z,43.90
2022-11-28T02:26:03.758Z,46.90
2022-11-28T02:31:08.497Z,45.63
2022-11-28T02:36:24.244Z,48.63
2022-11-28T02:41:35.194Z,47.63
2022-11-28T02:47:02.067Z,48.25
2022-11-28T02:52:09.961Z,45.60
2022-11-28T02:57:11.940Z,49.72
2022-11-28T03:02:19.723Z,47.27
2022-11-28T03:07:42.834Z,51.50
2022-11-28T03:18:15.150Z,47.45
2022-11-28T03:23:26.583Z,47.65
2022-11-28T03:28:40.685Z,53.70
2022-11-28T03:33:53.442Z,47.70
2022-11-28T03:39:02.453Z,46.63
2022-11-28T03:44:14.843Z,46.35
2022-11-28T03:49:24.444Z,49.15
2022-11-28T03:54:35.521Z,50.20
2022-11-28T03:59:48.015Z,44.60
2022-11-28T04:05:02.017Z,47.85
2022-11-28T04:10:21.629Z,48.47
2022-11-28T04:15:43.418Z,50.78
2022-11-28T04:20:58.353Z,45.20
2022-11-28T04:26:27.333Z,44.38
2022-11-28T04:31:30.981Z,42.47
2022-11-28T04:36:37.422Z,45.30
2022-11-28T04:41:45.589Z,44.30
2022-11-28T04:46:52.382Z,46.42
2022-11-28T04:52:12.749Z,43.55
2022-11-28T04:57:24.355Z,43.70
2022-11-28T05:02:28.581Z,41.75
2022-11-28T05:07:30.357Z,41.65
2022-11-28T05:12:32.311Z,39.28
2022-11-28T05:17:37.679Z,38.47
2022-11-28T05:22:42.228Z,36.58
2022-11-28T05:27:44.078Z,38.50
2022-11-28T05:32:45.796Z,42.40
2022-11-28T05:37:47.555Z,42.53
2022-11-28T05:42:49.252Z,37.92
2022-11-28T05:47:50.930Z,40.47
2022-11-28T05:52:52.658Z,38.72
2022-11-28T05:57:54.872Z,39.08
2022-11-28T06:03:01.179Z,40.58
2022-11-28T06:08:03.327Z,40.53
2022-11-28T06:13:05.299Z,31.23
2022-11-28T06:18:07.220Z,31.10
2022-11-28T06:23:08.888Z,31.40
2022-11-28T06:28:10.550Z,30.15
2022-11-28T06:33:12.510Z,30.40
2022-11-28T06:38:14.643Z,33.73
2022-11-28T06:43:16.258Z,33.27
2022-11-28T06:48:18.949Z,34.78
2022-11-28T06:53:20.723Z,33.83
2022-11-28T06:58:22.409Z,35.45
2022-11-28T07:03:24.093Z,51.20
2022-11-28T07:08:25.784Z,58.58
2022-11-28T07:13:27.551Z,39.83
2022-11-28T07:18:29.264Z,42.20
2022-11-28T07:23:30.975Z,35.47
2022-11-28T07:28:34.616Z,36.10
2022-11-28T07:33:36.988Z,40.10
2022-11-28T07:38:38.654Z,42.20
2022-11-28T07:43:42.802Z,42.30
2022-11-28T07:48:45.401Z,39.88
2022-11-28T07:58:49.734Z,41.83
2022-11-28T08:03:52.824Z,41.42
2022-11-28T08:08:55.547Z,35.15
2022-11-28T08:19:02.093Z,41.72
2022-11-28T08:24:04.797Z,43.42
2022-11-28T08:29:06.504Z,42.08
2022-11-28T08:34:09.916Z,42.75
2022-11-28T08:39:27.534Z,42.83
2022-11-28T08:44:30.753Z,41.00
2022-11-28T08:49:32.735Z,41.22
2022-11-28T08:54:34.443Z,41.07
2022-11-28T08:59:36.207Z,41.08
2022-11-28T09:04:38.242Z,39.85
2022-11-28T09:09:39.992Z,39.97
2022-11-28T09:14:42.094Z,37.37
2022-11-28T09:19:44.721Z,50.30
2022-11-28T09:24:46.736Z,43.22
2022-11-28T09:29:49.784Z,47.75
2022-11-28T09:34:51.637Z,45.58
2022-11-28T09:40:11.949Z,41.08
2022-11-28T09:45:23.528Z,38.15
2022-11-28T09:50:31.046Z,39.90
2022-11-28T09:55:44.308Z,36.85
2022-11-28T10:06:24.163Z,34.47
2022-11-28T10:11:32.058Z,33.15
2022-11-28T10:16:58.999Z,34.63
2022-11-28T10:22:05.392Z,36.53
2022-11-28T10:27:07.228Z,38.67
2022-11-28T10:32:18.282Z,36.70
2022-11-28T10:37:31.659Z,39.78
2022-11-28T10:42:50.269Z,35.53
2022-11-28T10:48:37.098Z,37.40
2022-11-28T10:53:31.624Z,33.75
2022-11-28T10:58:47.128Z,35.78
2022-11-28T11:03:49.606Z,35.17
2022-11-28T11:08:51.289Z,34.88
2022-11-28T11:14:03.972Z,34.13
2022-11-28T11:19:05.649Z,34.72
2022-11-28T11:24:25.622Z,33.10
2022-11-28T11:29:37.171Z,33.25
2022-11-28T11:34:44.938Z,31.10
2022-11-28T11:39:51.639Z,32.17
2022-11-28T11:44:53.546Z,31.42
2022-11-28T11:50:05.465Z,31.60
2022-11-28T11:55:16.378Z,31.35
2022-11-28T12:00:21.065Z,32.00
2022-11-28T12:05:41.782Z,30.45
2022-11-28T12:11:08.069Z,36.15
2022-11-28T12:16:42.543Z,30.67
2022-11-28T12:21:53.482Z,30.60
2022-11-28T12:27:03.509Z,30.75
2022-11-28T12:32:34.423Z,30.10
2022-11-28T12:38:09.903Z,30.40
2022-11-28T12:43:48.525Z,32.83
2022-11-28T12:49:38.237Z,36.67
2022-11-28T12:54:52.934Z,31.88
2022-11-28T13:00:08.365Z,35.70
2022-11-28T13:05:27.716Z,32.22
2022-11-28T13:10:42.101Z,33.42
2022-11-28T13:16:03.316Z,30.48
2022-11-28T13:21:17.358Z,31.08
2022-11-28T13:26:19.253Z,17.75
2022-11-28T13:31:30.869Z,29.03
2022-11-28T13:42:58.787Z,27.98
2022-11-28T13:47:41.895Z,28.50
2022-11-28T13:52:43.967Z,26.55
2022-11-28T13:57:46.900Z,27.52
2022-11-28T14:02:53.121Z,30.58
2022-11-28T14:07:56.693Z,37.53
2022-11-28T14:13:13.421Z,33.22
2022-11-28T14:18:56.391Z,35.33
2022-11-28T14:24:11.209Z,31.05
2022-11-28T14:29:25.956Z,35.53
2022-11-28T14:34:44.286Z,33.17
2022-11-28T14:39:50.606Z,30.05
2022-11-28T14:45:00.775Z,33.53
2022-11-28T14:50:05.599Z,26.92
2022-11-28T14:55:11.626Z,29.67
2022-11-28T15:00:15.926Z,23.70
2022-11-28T15:05:36.971Z,27.83
2022-11-28T15:11:04.694Z,27.45
2022-11-28T15:16:12.312Z,28.63
2022-11-28T15:21:15.717Z,30.77
2022-11-28T15:26:30.839Z,27.50
2022-11-28T15:31:33.407Z,29.35
2022-11-28T15:36:39.171Z,27.20
2022-11-28T15:41:45.671Z,29.30
2022-11-28T15:46:47.446Z,33.80
2022-11-28T15:51:56.514Z,27.95
2022-11-28T15:56:59.248Z,26.50
2022-11-28T16:02:11.860Z,39.92
2022-11-28T16:07:16.004Z,36.70
2022-11-28T16:12:18.912Z,25.92
2022-11-28T16:17:26.241Z,26.65
2022-11-28T16:22:36.888Z,26.45
2022-11-28T16:27:42.101Z,29.20
2022-11-28T16:32:43.842Z,29.40
2022-11-28T16:37:45.591Z,26.92
2022-11-28T16:42:55.041Z,27.05
2022-11-28T16:48:08.745Z,25.90
2022-11-28T16:53:47.760Z,24.45
2022-11-28T16:58:52.457Z,28.50
2022-11-28T17:03:56.608Z,28.45
2022-11-28T17:08:58.412Z,27.80
2022-11-28T17:14:02.708Z,24.33
2022-11-28T17:19:04.935Z,24.35
2022-11-28T17:24:16.262Z,22.47
2022-11-28T17:29:18.487Z,21.48
2022-11-28T17:34:23.130Z,22.33
2022-11-28T17:39:25.059Z,24.60
2022-11-28T17:44:32.092Z,22.65
2022-11-28T17:49:34.871Z,26.27
2022-11-28T17:54:36.673Z,21.33
2022-11-28T17:59:38.528Z,23.13
2022-11-28T18:04:40.918Z,25.02
2022-11-28T18:09:43.250Z,21.33
2022-11-28T18:19:47.744Z,22.70
2022-11-28T18:24:49.396Z,21.75
2022-11-28T18:29:51.262Z,21.90
2022-11-28T18:34:53.087Z,26.27
2022-11-28T18:39:54.844Z,25.52
2022-11-28T18:49:59.717Z,21.63
2022-11-28T19:00:06.325Z,21.63
2022-11-28T19:05:08.685Z,21.88
2022-11-28T19:15:14.383Z,27.35
2022-11-28T19:20:16.150Z,24.17
2022-11-28T19:25:17.779Z,23.33
2022-11-28T19:30:19.497Z,27.23
2022-11-28T19:35:21.595Z,28.93
2022-11-28T19:40:23.370Z,26.27
2022-11-28T19:45:25.727Z,24.95
2022-11-28T19:50:27.599Z,28.17
2022-11-28T19:55:29.508Z,24.50
2022-11-28T20:00:31.258Z,29.80
2022-11-28T20:05:38.738Z,27.03
2022-11-28T20:10:40.600Z,26.17
2022-11-28T20:15:42.432Z,25.40
2022-11-28T20:20:44.178Z,30.65
2022-11-28T20:25:45.893Z,32.35
2022-11-28T20:30:47.802Z,29.63
2022-11-28T20:35:49.848Z,29.50
2022-11-28T20:40:51.774Z,41.60
2022-11-28T20:45:53.498Z,36.17
2022-11-28T20:50:55.493Z,37.63
2022-11-28T20:56:02.847Z,36.00
2022-11-28T21:01:05.456Z,39.30
2022-11-28T21:06:07.421Z,39.70
2022-11-28T21:11:43.537Z,36.17
2022-11-28T21:16:39.938Z,36.42
2022-11-28T21:21:43.148Z,35.47
2022-11-28T21:26:49.718Z,34.38
2022-11-28T21:31:54.765Z,33.00
2022-11-28T21:36:56.578Z,34.77
2022-11-28T21:41:58.242Z,34.58
2022-11-28T21:47:00.016Z,36.60
2022-11-28T21:52:03.437Z,30.98
2022-11-28T21:57:05.211Z,31.98
2022-11-28T22:02:11.512Z,32.72
2022-11-28T22:07:13.842Z,34.38
2022-11-28T22:12:15.576Z,35.05
2022-11-28T22:17:17.246Z,33.25
2022-11-28T22:22:19.352Z,33.20
2022-11-28T22:27:21.691Z,30.17
2022-11-28T22:32:23.436Z,33.15
2022-11-28T22:37:25.143Z,36.67
2022-11-28T22:42:27.358Z,36.67
2022-11-28T22:47:29.259Z,32.57
2022-11-28T22:52:31.191Z,31.13
2022-11-28T22:57:32.917Z,31.13
2022-11-28T23:02:35.960Z,27.50
2022-11-28T23:07:37.817Z,31.37
2022-11-28T23:12:40.673Z,35.10
2022-11-28T23:17:43.179Z,34.90
2022-11-28T23:22:45.025Z,40.13
2022-11-28T23:27:47.397Z,38.35
2022-11-28T23:32:49.240Z,32.28
2022-11-28T23:37:51.001Z,34.90
2022-11-28T23:42:52.714Z,36.70
2022-11-28T23:47:54.372Z,31.42
2022-11-28T23:52:56.035Z,32.42
2022-11-28T23:57:57.798Z,34.08
